ホノルル の空港の天気 - METARとTAF

ホノルル国際空港 ( PHNL / HNL ) - アメリカ ハワイ州ホノルル
飛行場実況気象(Metar)
観測時間01/31 23:53 HST (02/01 09:53 UTC)
風向・風速北 2m/s
視程10km以上
天気現象
少しの雲 雲底高度 430m
全天の4割程度の雲 雲底高度 760m
全天の8割程度の雲 雲底高度 1220m
気温23.9℃
湿度84%
気圧1015.8hPa
METARPHNL 010953Z 01004KT 10SM FEW014 SCT025 BKN040 24/21 A3000 RMK AO2 RAE05 SLP158 VCSH NW P0000 T02390211 402830206 $
過去の天気等 Google飛行場航空写真 Wunderground天気予報

過去48時間のMETAR

飛行場予報(TAF)
発表時間: 1/31 22:52 HST (2/01 08:52 UTC)
予報対象時間: 31日23時 HST ~ 2日2時 HST
風向・風速東北東 2m/s
視程10km以上
少しの雲 雲底高度 910m
全天の4割程度の雲 雲底高度 1070m
1日10時 HST から
風向・風速南 4m/s
視程10km以上
天気現象周辺でしゅう雨
全天の4割程度の雲 雲底高度 1070m
全天の8割程度の雲 雲底高度 1520m
1日19時 HST から
風向・風速北 3m/s
視程10km以上
少しの雲 雲底高度 760m
全天の4割程度の雲 雲底高度 1220m
PHNL 010852Z 0109/0212 06004KT P6SM FEW030 SCT035
FM012000 19007KT P6SM VCSH SCT035 BKN050
FM020500 01005KT P6SM FEW025 SCT040